createdAt,value
2018-03-03T00:00:23.692Z,0.00
2018-03-03T00:01:23.679Z,0.00
2018-03-03T00:02:23.667Z,0.00
2018-03-03T00:03:23.652Z,0.00
2018-03-03T00:04:23.641Z,0.00
2018-03-03T00:05:23.622Z,0.00
2018-03-03T00:06:23.613Z,0.00
2018-03-03T00:07:23.595Z,0.00
2018-03-03T00:08:23.582Z,0.00
2018-03-03T00:09:23.572Z,0.00
2018-03-03T00:10:23.554Z,0.00
2018-03-03T00:11:23.538Z,0.00
2018-03-03T00:12:23.525Z,0.00
2018-03-03T00:13:23.513Z,0.00
2018-03-03T00:14:23.517Z,0.00
2018-03-03T00:15:23.483Z,0.00
2018-03-03T00:16:23.470Z,0.00
2018-03-03T00:17:23.457Z,0.00
2018-03-03T00:18:23.445Z,0.00
2018-03-03T00:19:23.433Z,0.00
2018-03-03T00:20:23.419Z,0.00
2018-03-03T00:21:23.402Z,0.00
2018-03-03T00:22:23.384Z,0.00
2018-03-03T00:23:23.373Z,0.00
2018-03-03T00:24:23.359Z,0.00
2018-03-03T00:25:23.414Z,0.00
2018-03-03T00:26:23.333Z,0.00
2018-03-03T00:27:23.314Z,0.00
2018-03-03T00:28:23.304Z,0.00
2018-03-03T00:29:23.285Z,0.00
2018-03-03T00:30:23.273Z,0.00
2018-03-03T00:31:23.277Z,0.00
2018-03-03T00:32:23.249Z,0.00
2018-03-03T00:33:23.231Z,0.00
2018-03-03T00:34:23.214Z,0.00
2018-03-03T00:35:23.259Z,0.00
2018-03-03T00:36:23.202Z,0.00
2018-03-03T00:37:23.174Z,0.00
2018-03-03T00:38:23.162Z,0.00
2018-03-03T00:39:23.144Z,0.00
2018-03-03T00:40:23.136Z,0.00
2018-03-03T00:41:23.115Z,0.00
2018-03-03T00:42:23.102Z,0.00
2018-03-03T00:43:23.085Z,0.00
2018-03-03T00:44:23.068Z,0.00
2018-03-03T00:45:23.102Z,0.00
2018-03-03T00:46:23.044Z,0.00
2018-03-03T00:47:23.029Z,0.00
2018-03-03T00:48:23.016Z,0.00
2018-03-03T00:49:23.004Z,0.00
2018-03-03T00:50:22.987Z,0.00
2018-03-03T00:51:22.971Z,0.00
2018-03-03T00:52:22.956Z,0.00
2018-03-03T00:53:22.946Z,0.00
2018-03-03T00:54:22.930Z,0.00
2018-03-03T00:55:22.922Z,0.00
2018-03-03T00:56:22.900Z,0.00
2018-03-03T00:57:22.884Z,0.00
2018-03-03T00:58:22.863Z,0.00
2018-03-03T00:59:22.858Z,0.00
2018-03-03T01:00:22.854Z,0.00
2018-03-03T01:01:22.827Z,0.00
2018-03-03T01:02:22.813Z,0.00
2018-03-03T01:03:22.802Z,0.00
2018-03-03T01:04:22.785Z,0.00
2018-03-03T01:05:22.771Z,0.00
2018-03-03T01:06:22.761Z,0.00
2018-03-03T01:07:22.744Z,0.00
2018-03-03T01:08:22.727Z,0.00
2018-03-03T01:09:22.714Z,0.00
2018-03-03T01:10:22.701Z,0.00
2018-03-03T01:11:22.684Z,0.00
2018-03-03T01:12:22.678Z,0.00
2018-03-03T01:13:22.661Z,0.00
2018-03-03T01:14:22.647Z,0.00
2018-03-03T01:15:22.626Z,0.00
2018-03-03T01:16:22.613Z,0.00
2018-03-03T01:17:22.598Z,0.00
2018-03-03T01:18:22.584Z,0.00
2018-03-03T01:19:22.570Z,0.00
2018-03-03T01:20:22.549Z,0.00
2018-03-03T01:21:22.542Z,0.00
2018-03-03T01:22:22.526Z,0.00
2018-03-03T01:23:22.520Z,0.00
2018-03-03T01:24:22.497Z,0.00
2018-03-03T01:25:22.484Z,0.00
2018-03-03T01:26:22.459Z,0.00
2018-03-03T01:27:22.452Z,0.00
2018-03-03T01:28:22.439Z,0.00
2018-03-03T01:29:22.426Z,0.00
2018-03-03T01:30:22.414Z,0.00
2018-03-03T01:31:22.396Z,0.00
2018-03-03T01:32:22.380Z,0.00
2018-03-03T01:33:22.365Z,0.00
2018-03-03T02:05:31.978Z,0.00
2018-03-03T02:06:31.932Z,0.00
2018-03-03T02:08:24.822Z,0.00
2018-03-03T02:09:24.791Z,0.00
2018-03-03T02:11:17.677Z,0.00
2018-03-03T02:12:17.640Z,0.00
2018-03-03T02:14:10.525Z,0.00
2018-03-03T02:15:10.504Z,0.00
2018-03-03T02:17:03.379Z,0.00
2018-03-03T02:18:03.343Z,0.00
2018-03-03T02:19:56.232Z,0.00
2018-03-03T02:20:56.212Z,0.00
2018-03-03T02:22:50.114Z,0.00
2018-03-03T02:23:50.078Z,0.00
2018-03-03T02:25:42.958Z,0.00
2018-03-03T02:26:42.925Z,0.00
2018-03-03T02:28:35.819Z,0.00
2018-03-03T02:29:35.780Z,0.00
2018-03-03T02:31:28.669Z,0.00
2018-03-03T02:32:28.640Z,0.00
2018-03-03T02:34:21.579Z,0.00
2018-03-03T02:35:21.521Z,0.00
2018-03-03T02:37:14.418Z,0.00
2018-03-03T02:38:14.375Z,0.00
2018-03-03T02:40:07.257Z,0.00
2018-03-03T02:41:07.297Z,0.00
2018-03-03T02:43:00.165Z,0.00
2018-03-03T02:44:00.130Z,0.00
2018-03-03T02:45:53.007Z,0.00
2018-03-03T02:46:52.983Z,0.00
2018-03-03T02:48:45.869Z,0.00
2018-03-03T02:49:45.832Z,0.00
2018-03-03T02:51:38.710Z,0.00
2018-03-03T02:52:38.688Z,0.00
2018-03-03T02:54:31.567Z,0.00
2018-03-03T02:55:31.539Z,0.00
2018-03-03T02:57:24.522Z,0.00
2018-03-03T02:58:24.486Z,0.00
2018-03-03T03:00:17.294Z,0.00
2018-03-03T03:01:17.249Z,0.00
2018-03-03T03:03:10.126Z,0.00
2018-03-03T03:04:10.102Z,0.00
2018-03-03T03:06:02.988Z,0.00
2018-03-03T03:07:02.954Z,0.00
2018-03-03T03:08:55.832Z,0.00
2018-03-03T03:09:55.802Z,0.00
2018-03-03T03:11:48.738Z,0.00
2018-03-03T03:12:48.702Z,0.00
2018-03-03T03:14:41.604Z,0.00
2018-03-03T03:15:41.550Z,0.00
2018-03-03T03:17:34.419Z,0.00
2018-03-03T03:18:34.406Z,0.00
2018-03-03T03:20:27.286Z,0.00
2018-03-03T03:21:27.256Z,0.00
2018-03-03T03:23:20.134Z,0.00
2018-03-03T03:24:20.103Z,0.00
2018-03-03T03:26:12.995Z,0.00
2018-03-03T03:27:12.959Z,0.00
2018-03-03T03:29:05.835Z,0.00
2018-03-03T03:30:05.811Z,0.00
2018-03-03T03:31:58.692Z,0.00
2018-03-03T03:32:58.657Z,0.00
2018-03-03T03:34:51.538Z,0.00
2018-03-03T03:35:51.509Z,0.00
2018-03-03T03:37:44.484Z,0.00
2018-03-03T03:38:44.458Z,0.00
2018-03-03T03:40:37.336Z,0.00
2018-03-03T03:41:37.321Z,0.00
2018-03-03T03:42:37.310Z,0.00
2018-03-03T03:43:37.290Z,0.00
2018-03-03T03:44:37.275Z,0.00
2018-03-03T03:45:37.263Z,0.00
2018-03-03T03:46:37.251Z,0.00
2018-03-03T03:47:37.244Z,0.00
2018-03-03T03:48:37.222Z,0.00
2018-03-03T03:49:37.210Z,0.00
2018-03-03T03:50:37.197Z,0.00
2018-03-03T03:51:37.181Z,0.00
2018-03-03T03:52:37.166Z,0.00
2018-03-03T03:53:37.151Z,0.00
2018-03-03T03:54:37.137Z,0.00
2018-03-03T03:55:37.128Z,0.00
2018-03-03T03:56:37.107Z,0.00
2018-03-03T03:57:37.104Z,0.00
2018-03-03T03:58:37.085Z,0.00
2018-03-03T03:59:37.072Z,0.00
2018-03-03T04:00:37.057Z,0.00
2018-03-03T04:01:37.030Z,0.00
2018-03-03T04:02:37.020Z,0.00
2018-03-03T04:03:37.012Z,0.00
2018-03-03T04:04:37.001Z,0.00
2018-03-03T04:05:36.986Z,0.00
2018-03-03T04:06:36.968Z,0.00
2018-03-03T04:07:36.955Z,0.00
2018-03-03T04:08:36.944Z,0.00
2018-03-03T04:09:36.930Z,0.00
2018-03-03T04:10:36.915Z,0.00
2018-03-03T04:11:36.900Z,0.00
2018-03-03T04:12:36.884Z,0.00
2018-03-03T04:13:36.872Z,0.00
2018-03-03T04:14:36.854Z,0.00
2018-03-03T04:15:36.847Z,0.00
2018-03-03T04:16:36.829Z,0.00
2018-03-03T04:17:36.815Z,0.00
2018-03-03T04:18:36.800Z,0.00
2018-03-03T04:19:36.787Z,0.00
2018-03-03T04:20:36.771Z,0.00
2018-03-03T04:21:36.757Z,0.00
2018-03-03T04:22:36.748Z,0.00
2018-03-03T04:23:36.728Z,0.00
2018-03-03T04:24:36.713Z,0.00
2018-03-03T04:25:36.706Z,0.00
2018-03-03T04:26:36.685Z,0.00
2018-03-03T04:27:36.672Z,0.00
2018-03-03T04:28:36.654Z,0.00
2018-03-03T04:29:36.640Z,0.00
2018-03-03T04:30:36.632Z,0.00
2018-03-03T04:31:36.616Z,0.00
2018-03-03T04:32:36.619Z,0.00
2018-03-03T04:33:36.581Z,0.00
2018-03-03T04:34:36.572Z,0.00
2018-03-03T04:35:36.561Z,0.00
2018-03-03T04:36:36.546Z,0.00
2018-03-03T04:37:36.527Z,0.00
2018-03-03T04:38:36.513Z,0.00
2018-03-03T04:39:36.497Z,0.00
2018-03-03T04:40:36.483Z,0.00
2018-03-03T04:41:36.467Z,0.00
2018-03-03T04:42:36.453Z,0.00
2018-03-03T04:43:36.430Z,0.00
2018-03-03T04:44:36.421Z,0.00
2018-03-03T04:45:36.407Z,0.00
2018-03-03T04:46:36.424Z,0.00
2018-03-03T04:47:36.382Z,0.00
2018-03-03T04:48:36.365Z,0.00
2018-03-03T04:49:36.352Z,0.00
2018-03-03T04:50:36.339Z,0.00
2018-03-03T04:51:36.322Z,0.00
2018-03-03T04:52:36.309Z,0.00
2018-03-03T04:53:36.291Z,0.00
2018-03-03T04:54:36.277Z,0.00
2018-03-03T04:55:36.266Z,0.00
2018-03-03T04:56:36.247Z,0.00
2018-03-03T04:57:36.232Z,0.00
2018-03-03T04:58:36.217Z,0.00
2018-03-03T04:59:36.203Z,0.00
2018-03-03T05:00:36.191Z,0.00
2018-03-03T05:01:36.174Z,0.00
2018-03-03T05:02:36.160Z,0.00
2018-03-03T05:03:36.144Z,0.00
2018-03-03T05:04:36.136Z,0.00
2018-03-03T05:05:36.118Z,0.00
2018-03-03T05:06:36.102Z,0.00
2018-03-03T05:07:36.084Z,0.00
2018-03-03T05:08:36.088Z,0.00
2018-03-03T05:09:36.055Z,0.00
2018-03-03T05:10:36.045Z,0.00
2018-03-03T05:11:36.032Z,0.00
2018-03-03T05:12:36.019Z,0.00
2018-03-03T05:13:35.995Z,0.00
2018-03-03T05:14:35.984Z,0.00
2018-03-03T05:15:35.972Z,0.00
2018-03-03T05:16:35.952Z,0.00
2018-03-03T05:17:35.945Z,0.00
2018-03-03T05:18:35.924Z,0.00
2018-03-03T05:19:35.908Z,0.00
2018-03-03T05:20:35.892Z,0.00
2018-03-03T05:21:35.880Z,0.00
2018-03-03T05:22:35.865Z,0.00
2018-03-03T05:23:35.854Z,0.00
2018-03-03T05:24:35.853Z,0.00
2018-03-03T05:25:35.820Z,0.00
2018-03-03T05:26:35.806Z,0.00
2018-03-03T05:27:35.792Z,0.00
2018-03-03T05:28:35.776Z,0.00
2018-03-03T05:29:35.763Z,0.00
2018-03-03T05:30:35.751Z,0.00
2018-03-03T05:31:35.733Z,4.00
2018-03-03T05:32:35.716Z,4.00
2018-03-03T05:33:35.706Z,0.00
2018-03-03T05:34:35.691Z,4.00
2018-03-03T05:35:35.676Z,4.00
2018-03-03T05:36:35.658Z,4.00
2018-03-03T05:37:35.634Z,4.00
2018-03-03T05:38:35.630Z,8.00
2018-03-03T05:39:35.618Z,12.00
2018-03-03T05:40:35.601Z,12.00
2018-03-03T05:41:35.591Z,12.00
2018-03-03T05:42:35.573Z,16.00
2018-03-03T05:43:35.562Z,20.00
2018-03-03T05:44:35.548Z,20.00
2018-03-03T05:45:35.528Z,28.00
2018-03-03T05:46:35.515Z,32.00
2018-03-03T05:47:35.500Z,36.00
2018-03-03T05:48:35.483Z,44.00
2018-03-03T05:49:35.469Z,52.00
2018-03-03T05:50:35.457Z,60.00
2018-03-03T05:51:35.438Z,72.00
2018-03-03T05:52:35.424Z,84.00
2018-03-03T05:53:35.412Z,100.00
2018-03-03T05:54:35.394Z,112.00
2018-03-03T05:55:35.383Z,124.00
2018-03-03T05:56:35.365Z,128.00
2018-03-03T05:57:35.353Z,132.00
2018-03-03T05:58:35.336Z,144.00
2018-03-03T05:59:35.319Z,156.00
2018-03-03T06:00:35.306Z,164.00
2018-03-03T06:01:35.302Z,184.00
2018-03-03T06:02:35.281Z,196.00
2018-03-03T06:03:35.271Z,204.00
2018-03-03T06:04:35.247Z,216.00
2018-03-03T06:05:35.236Z,228.00
2018-03-03T06:06:35.219Z,240.00
2018-03-03T06:07:35.207Z,252.00
2018-03-03T06:08:35.189Z,268.00
2018-03-03T06:09:35.175Z,280.00
2018-03-03T06:10:35.153Z,292.00
2018-03-03T06:11:35.147Z,308.00
2018-03-03T06:12:35.129Z,324.00
2018-03-03T06:13:35.125Z,336.00
2018-03-03T06:14:35.099Z,356.00
2018-03-03T06:15:35.085Z,368.00
2018-03-03T06:16:35.070Z,380.00
2018-03-03T06:17:35.058Z,396.00
2018-03-03T06:18:35.044Z,408.00
2018-03-03T06:19:35.030Z,416.00
2018-03-03T06:20:35.014Z,424.00
2018-03-03T06:21:35.002Z,436.00
2018-03-03T06:22:34.987Z,444.00
2018-03-03T06:23:34.975Z,452.00
2018-03-03T06:24:34.956Z,460.00
2018-03-03T06:25:34.944Z,476.00
2018-03-03T06:26:34.928Z,492.00
2018-03-03T06:27:34.915Z,504.00
2018-03-03T06:28:34.898Z,512.00
2018-03-03T06:29:34.887Z,528.00
2018-03-03T06:30:34.871Z,536.00
2018-03-03T06:31:34.857Z,544.00
2018-03-03T06:32:34.840Z,552.00
2018-03-03T06:33:34.834Z,564.00
2018-03-03T06:34:34.813Z,580.00
2018-03-03T06:35:34.802Z,600.00
2018-03-03T06:36:34.790Z,628.00
2018-03-03T06:37:34.771Z,656.00
2018-03-03T06:38:34.758Z,696.00
2018-03-03T06:39:34.749Z,744.00
2018-03-03T06:40:34.751Z,784.00
2018-03-03T06:41:34.720Z,840.00
2018-03-03T06:42:34.698Z,908.00
2018-03-03T06:43:34.690Z,980.00
2018-03-03T06:44:34.676Z,1064.00
2018-03-03T06:45:34.663Z,1168.00
2018-03-03T06:46:34.652Z,1284.00
2018-03-03T06:47:34.654Z,1404.00
2018-03-03T06:48:34.622Z,1536.00
2018-03-03T06:49:34.621Z,1676.00
2018-03-03T06:50:34.595Z,1824.00
2018-03-03T06:51:34.584Z,1972.00
2018-03-03T06:52:34.560Z,2124.00
2018-03-03T06:53:34.567Z,2252.00
2018-03-03T06:54:34.542Z,2360.00
2018-03-03T06:55:34.531Z,2452.00
2018-03-03T06:56:34.514Z,2556.00
2018-03-03T06:57:34.519Z,2708.00
2018-03-03T06:58:34.491Z,2960.00
2018-03-03T06:59:34.485Z,3312.00
2018-03-03T07:00:34.463Z,3696.00
2018-03-03T07:01:34.451Z,4048.00
2018-03-03T07:02:34.436Z,4416.00
2018-03-03T07:03:34.421Z,4744.00
2018-03-03T07:04:34.412Z,4984.00
2018-03-03T07:05:34.389Z,5168.00
2018-03-03T07:06:34.385Z,5328.00
2018-03-03T07:07:34.371Z,5496.00
2018-03-03T07:08:34.363Z,5672.00
2018-03-03T07:09:34.348Z,5756.00
2018-03-03T07:10:34.336Z,5764.00
2018-03-03T07:11:34.324Z,5724.00
2018-03-03T07:12:34.315Z,5608.00
2018-03-03T07:13:34.296Z,5540.00
2018-03-03T07:14:34.289Z,5616.00
2018-03-03T07:15:34.277Z,6684.00
2018-03-03T07:16:34.260Z,6256.00
2018-03-03T07:17:34.246Z,6144.00
2018-03-03T07:18:34.232Z,6532.00
2018-03-03T07:19:34.229Z,7024.00
2018-03-03T07:20:34.216Z,7972.00
2018-03-03T07:21:34.199Z,8036.00
2018-03-03T07:22:34.234Z,8948.00
2018-03-03T07:23:34.176Z,8872.00
2018-03-03T07:24:34.166Z,9892.00
2018-03-03T07:25:34.156Z,8176.00
2018-03-03T07:26:34.141Z,7956.00
2018-03-03T07:27:34.135Z,8092.00
2018-03-03T07:28:34.121Z,8052.00
2018-03-03T07:29:34.109Z,8068.00
2018-03-03T07:30:34.099Z,8496.00
2018-03-03T07:31:34.096Z,8440.00
2018-03-03T07:32:34.078Z,8680.00
2018-03-03T07:33:34.064Z,8528.00
2018-03-03T07:34:34.054Z,9224.00
2018-03-03T07:35:34.108Z,9068.00
2018-03-03T07:36:34.036Z,9032.00
2018-03-03T07:37:34.026Z,9524.00
2018-03-03T07:38:34.015Z,9160.00
2018-03-03T07:39:34.009Z,9488.00
2018-03-03T07:40:33.993Z,9052.00
2018-03-03T07:41:33.984Z,8752.00
2018-03-03T07:42:33.974Z,8908.00
2018-03-03T07:43:33.969Z,8656.00
2018-03-03T07:44:33.957Z,8372.00
2018-03-03T07:45:33.945Z,7776.00
2018-03-03T07:46:33.937Z,7788.00
2018-03-03T07:47:33.930Z,7976.00
2018-03-03T07:48:33.920Z,8492.00
2018-03-03T07:49:33.910Z,8840.00
2018-03-03T07:50:33.914Z,8840.00
2018-03-03T07:51:33.891Z,9024.00
2018-03-03T07:52:33.896Z,9092.00
2018-03-03T07:53:33.875Z,9328.00
2018-03-03T07:54:33.873Z,9776.00
2018-03-03T07:55:33.852Z,10124.00
2018-03-03T07:56:33.846Z,11064.00
2018-03-03T07:57:33.837Z,11928.00
2018-03-03T07:58:33.828Z,12080.00
2018-03-03T07:59:33.821Z,12276.00
2018-03-03T08:00:33.811Z,12988.00
2018-03-03T08:01:33.803Z,12600.00
2018-03-03T08:02:33.792Z,12708.00
2018-03-03T08:03:33.788Z,13144.00
2018-03-03T08:04:33.801Z,12924.00
2018-03-03T08:05:33.775Z,12636.00
2018-03-03T08:06:33.760Z,12344.00
2018-03-03T08:07:33.752Z,12184.00
2018-03-03T08:08:33.745Z,12884.00
2018-03-03T08:09:33.736Z,12356.00
2018-03-03T08:10:33.734Z,12908.00
2018-03-03T08:11:33.722Z,12800.00
2018-03-03T08:12:33.716Z,12840.00
2018-03-03T08:13:33.707Z,13412.00
2018-03-03T08:14:33.700Z,12424.00
2018-03-03T08:15:33.696Z,12268.00
2018-03-03T08:16:33.686Z,12548.00
2018-03-03T08:17:33.676Z,12920.00
2018-03-03T08:18:33.671Z,13352.00
2018-03-03T08:19:33.665Z,13832.00
2018-03-03T08:20:33.660Z,14144.00
2018-03-03T08:21:33.646Z,14428.00
2018-03-03T08:22:33.640Z,14808.00
2018-03-03T08:23:33.638Z,15488.00
2018-03-03T08:24:33.628Z,15916.00
2018-03-03T08:25:33.643Z,16220.00
2018-03-03T08:26:33.611Z,16800.00
2018-03-03T08:27:33.605Z,16576.00
2018-03-03T08:28:33.620Z,16192.00
2018-03-03T08:29:33.623Z,15924.00
2018-03-03T08:30:33.586Z,15800.00
2018-03-03T08:31:33.593Z,15804.00
2018-03-03T08:32:33.588Z,15880.00
2018-03-03T08:33:33.564Z,16300.00
2018-03-03T08:34:33.560Z,16992.00
2018-03-03T08:35:33.554Z,17248.00
2018-03-03T08:36:33.545Z,17536.00
2018-03-03T08:37:33.539Z,17632.00
2018-03-03T08:38:33.527Z,17696.00
2018-03-03T08:39:33.536Z,17792.00
2018-03-03T08:40:33.531Z,17824.00
2018-03-03T08:41:33.515Z,17888.00
2018-03-03T08:42:33.506Z,17952.00
2018-03-03T08:43:33.513Z,18176.00
2018-03-03T08:44:33.495Z,18176.00
2018-03-03T08:45:33.487Z,18368.00
2018-03-03T08:46:33.488Z,18400.00
2018-03-03T08:47:33.487Z,18656.00
2018-03-03T08:48:33.478Z,19104.00
2018-03-03T08:49:33.550Z,20032.00
2018-03-03T08:50:33.499Z,20768.00
2018-03-03T08:51:33.463Z,21888.00
2018-03-03T08:52:33.454Z,22624.00
2018-03-03T08:53:33.449Z,23424.00
2018-03-03T08:54:33.438Z,24096.00
2018-03-03T08:55:33.434Z,23648.00
2018-03-03T08:56:33.432Z,23520.00
2018-03-03T08:57:33.425Z,23104.00
2018-03-03T08:58:33.423Z,22880.00
2018-03-03T08:59:33.417Z,22816.00
2018-03-03T09:00:33.412Z,22432.00
2018-03-03T09:01:33.410Z,22848.00
2018-03-03T09:02:33.394Z,23072.00
2018-03-03T09:03:33.401Z,23232.00
2018-03-03T09:04:33.487Z,23296.00
2018-03-03T09:05:33.393Z,22720.00
2018-03-03T09:06:33.394Z,22112.00
2018-03-03T09:07:33.388Z,21696.00
2018-03-03T09:08:33.383Z,21408.00
2018-03-03T09:09:33.382Z,22624.00
2018-03-03T09:10:33.378Z,21888.00
2018-03-03T09:11:33.378Z,22848.00
2018-03-03T09:12:33.360Z,23072.00
2018-03-03T09:13:33.364Z,24448.00
2018-03-03T09:14:33.362Z,25664.00
2018-03-03T09:15:33.362Z,26464.00
2018-03-03T09:16:33.358Z,26176.00
2018-03-03T09:17:33.350Z,25504.00
2018-03-03T09:18:33.351Z,25632.00
2018-03-03T09:19:33.345Z,26112.00
2018-03-03T09:20:33.342Z,26240.00
2018-03-03T09:21:33.343Z,26112.00
2018-03-03T09:22:33.332Z,25952.00
2018-03-03T09:23:33.336Z,25536.00
2018-03-03T09:24:33.328Z,25056.00
2018-03-03T09:25:33.329Z,24768.00
2018-03-03T09:26:33.324Z,24320.00
2018-03-03T09:27:33.324Z,24064.00
2018-03-03T09:28:33.346Z,24192.00
2018-03-03T09:29:33.316Z,24640.00
2018-03-03T09:30:33.328Z,25152.00
2018-03-03T09:31:33.326Z,25504.00
2018-03-03T09:32:33.306Z,25344.00
2018-03-03T09:33:33.307Z,25280.00
2018-03-03T09:34:33.297Z,25504.00
2018-03-03T09:35:33.300Z,25984.00
2018-03-03T09:36:33.295Z,26336.00
2018-03-03T09:37:33.297Z,25760.00
2018-03-03T09:38:33.294Z,25184.00
2018-03-03T09:39:33.289Z,24256.00
2018-03-03T09:40:33.288Z,23232.00
2018-03-03T09:41:33.283Z,22720.00
2018-03-03T09:42:33.278Z,22112.00
2018-03-03T09:43:33.283Z,19616.00
2018-03-03T09:44:33.278Z,18304.00
2018-03-03T09:45:33.276Z,18048.00
2018-03-03T09:46:33.270Z,19040.00
2018-03-03T09:47:33.274Z,20064.00
2018-03-03T09:48:33.267Z,20960.00
2018-03-03T09:49:33.268Z,24256.00
2018-03-03T09:50:33.267Z,25312.00
2018-03-03T09:51:33.263Z,25120.00
2018-03-03T09:52:33.266Z,26240.00
2018-03-03T09:53:33.258Z,25216.00
2018-03-03T09:54:33.259Z,25152.00
2018-03-03T09:55:33.263Z,25056.00
2018-03-03T09:56:33.255Z,28032.00
2018-03-03T09:57:33.253Z,28000.00
2018-03-03T09:58:33.253Z,29408.00
2018-03-03T09:59:33.253Z,30432.00
2018-03-03T10:00:33.253Z,30176.00
2018-03-03T10:01:33.262Z,29792.00
2018-03-03T10:02:33.248Z,29184.00
2018-03-03T10:03:33.250Z,28768.00
2018-03-03T10:04:33.247Z,28320.00
2018-03-03T10:05:33.246Z,28512.00
2018-03-03T10:06:33.245Z,28448.00
2018-03-03T10:07:33.247Z,27776.00
2018-03-03T10:08:33.248Z,28032.00
2018-03-03T10:09:33.246Z,26752.00
2018-03-03T10:10:33.248Z,26944.00
2018-03-03T10:11:33.244Z,27392.00
2018-03-03T10:12:33.243Z,26912.00
2018-03-03T10:13:33.246Z,26208.00
2018-03-03T10:14:33.237Z,27200.00
2018-03-03T10:15:33.244Z,26720.00
2018-03-03T10:16:33.242Z,27488.00
2018-03-03T10:17:33.240Z,27040.00
2018-03-03T10:18:33.239Z,27584.00
2018-03-03T10:19:33.239Z,26816.00
2018-03-03T10:20:33.240Z,25888.00
2018-03-03T10:21:33.236Z,24832.00
2018-03-03T10:22:33.240Z,23296.00
2018-03-03T10:23:33.247Z,23072.00
2018-03-03T10:24:33.241Z,21184.00
2018-03-03T10:25:33.236Z,21376.00
2018-03-03T10:26:33.242Z,22784.00
2018-03-03T10:27:33.240Z,22368.00
2018-03-03T10:28:33.248Z,21824.00
2018-03-03T10:29:33.247Z,23008.00
2018-03-03T10:30:34.504Z,23648.00
2018-03-03T10:31:33.244Z,21504.00
2018-03-03T10:32:33.253Z,20448.00
2018-03-03T10:33:33.252Z,20000.00
2018-03-03T10:34:33.249Z,20000.00
2018-03-03T10:35:33.252Z,17536.00
2018-03-03T10:36:33.260Z,19776.00
2018-03-03T10:37:33.257Z,17472.00
2018-03-03T10:38:33.259Z,17088.00
2018-03-03T10:39:33.262Z,18944.00
2018-03-03T10:40:33.266Z,18976.00
2018-03-03T10:41:33.264Z,18656.00
2018-03-03T10:42:33.275Z,19232.00
2018-03-03T10:43:33.270Z,18432.00
2018-03-03T10:44:33.267Z,18272.00
2018-03-03T10:45:33.269Z,18400.00
2018-03-03T10:46:33.273Z,17920.00
2018-03-03T10:47:33.275Z,19200.00
2018-03-03T10:48:33.271Z,18240.00
2018-03-03T10:49:33.276Z,18464.00
2018-03-03T10:50:33.276Z,17888.00
2018-03-03T10:51:33.282Z,17696.00
2018-03-03T10:52:33.278Z,17888.00
2018-03-03T10:53:33.287Z,19456.00
2018-03-03T10:54:33.282Z,20000.00
2018-03-03T10:55:33.282Z,19904.00
2018-03-03T10:56:33.283Z,20832.00
2018-03-03T10:57:33.279Z,20640.00
2018-03-03T10:58:33.321Z,20864.00
2018-03-03T10:59:33.287Z,21440.00
2018-03-03T11:00:33.295Z,21504.00
2018-03-03T11:01:33.285Z,22880.00
2018-03-03T11:02:34.454Z,23936.00
2018-03-03T11:03:33.285Z,24480.00
2018-03-03T11:04:33.285Z,24256.00
2018-03-03T11:05:33.283Z,24288.00
2018-03-03T11:06:33.285Z,23808.00
2018-03-03T11:07:33.281Z,23424.00
2018-03-03T11:08:33.280Z,23744.00
2018-03-03T11:09:33.337Z,24288.00
2018-03-03T11:10:33.277Z,24608.00
2018-03-03T11:11:33.280Z,24736.00
2018-03-03T11:12:33.276Z,24736.00
2018-03-03T11:13:33.275Z,24896.00
2018-03-03T11:14:33.285Z,24736.00
2018-03-03T11:15:33.277Z,24320.00
2018-03-03T11:16:33.274Z,24128.00
2018-03-03T11:17:33.277Z,24000.00
2018-03-03T11:18:33.267Z,24160.00
2018-03-03T11:19:33.266Z,24576.00
2018-03-03T11:20:33.264Z,24384.00
2018-03-03T11:21:33.266Z,24224.00
2018-03-03T11:22:33.261Z,24160.00
2018-03-03T11:23:33.261Z,24224.00
2018-03-03T11:24:33.258Z,24640.00
2018-03-03T11:25:33.255Z,24736.00
2018-03-03T11:26:33.251Z,24832.00
2018-03-03T11:27:33.251Z,24992.00
2018-03-03T11:28:33.246Z,25824.00
2018-03-03T11:29:33.247Z,26656.00
2018-03-03T11:30:33.241Z,27104.00
2018-03-03T11:31:33.240Z,26848.00
2018-03-03T11:32:33.238Z,25888.00
2018-03-03T11:33:33.232Z,25376.00
2018-03-03T11:34:33.232Z,25312.00
2018-03-03T11:35:33.229Z,25632.00
2018-03-03T11:36:33.225Z,25664.00
2018-03-03T11:37:33.229Z,26112.00
2018-03-03T11:38:33.224Z,26944.00
2018-03-03T11:39:33.223Z,27712.00
2018-03-03T11:40:33.435Z,28160.00
2018-03-03T11:41:33.213Z,28576.00
2018-03-03T11:42:33.210Z,28704.00
2018-03-03T11:43:33.211Z,28960.00
2018-03-03T11:44:33.204Z,28640.00
2018-03-03T11:45:33.204Z,27840.00
2018-03-03T11:46:33.198Z,27328.00
2018-03-03T11:47:33.197Z,26496.00
2018-03-03T11:48:33.186Z,26496.00
2018-03-03T11:49:33.193Z,26880.00
2018-03-03T11:50:33.190Z,27520.00
2018-03-03T11:51:33.191Z,27872.00
2018-03-03T11:52:33.183Z,27904.00
2018-03-03T11:53:33.184Z,27392.00
2018-03-03T11:54:33.177Z,26656.00
2018-03-03T11:55:33.178Z,25792.00
2018-03-03T11:56:33.171Z,25024.00
2018-03-03T11:57:33.168Z,24320.00
2018-03-03T11:58:33.170Z,24128.00
2018-03-03T11:59:33.166Z,23392.00
2018-03-03T12:00:33.165Z,23744.00
2018-03-03T12:01:33.158Z,24384.00
2018-03-03T12:02:33.156Z,25376.00
2018-03-03T12:03:33.162Z,26080.00
2018-03-03T12:04:33.167Z,25664.00
2018-03-03T12:05:33.149Z,25952.00
2018-03-03T12:06:33.147Z,26624.00
2018-03-03T12:07:33.178Z,26880.00
2018-03-03T12:08:33.138Z,26400.00
2018-03-03T12:09:33.142Z,26656.00
2018-03-03T12:10:33.135Z,27136.00
2018-03-03T12:11:33.133Z,27232.00
2018-03-03T12:12:33.132Z,27232.00
2018-03-03T12:13:33.132Z,27264.00
2018-03-03T12:14:33.125Z,27488.00
2018-03-03T12:15:33.144Z,26784.00
2018-03-03T12:16:33.136Z,26592.00
2018-03-03T12:17:33.116Z,26208.00
2018-03-03T12:18:33.117Z,26272.00
2018-03-03T12:19:33.114Z,26848.00
2018-03-03T12:20:33.112Z,27424.00
2018-03-03T12:21:33.122Z,27648.00
2018-03-03T12:22:33.107Z,27264.00
2018-03-03T12:23:33.104Z,27232.00
2018-03-03T12:24:33.099Z,25760.00
2018-03-03T12:25:33.099Z,24352.00
2018-03-03T12:26:33.099Z,22976.00
2018-03-03T12:27:33.102Z,22720.00
2018-03-03T12:28:33.095Z,22720.00
2018-03-03T12:29:33.095Z,21888.00
2018-03-03T12:30:33.120Z,21632.00
2018-03-03T12:31:33.089Z,20832.00
2018-03-03T12:32:33.098Z,20288.00
2018-03-03T12:33:33.082Z,20480.00
2018-03-03T12:34:33.080Z,20992.00
2018-03-03T12:35:33.078Z,21760.00
2018-03-03T12:36:33.075Z,22368.00
2018-03-03T12:37:33.072Z,22432.00
2018-03-03T12:38:33.069Z,22464.00
2018-03-03T12:39:33.065Z,22560.00
2018-03-03T12:40:33.061Z,22592.00
2018-03-03T12:41:33.090Z,22176.00
2018-03-03T12:42:33.060Z,22112.00
2018-03-03T12:43:33.054Z,22048.00
2018-03-03T12:44:33.051Z,21984.00
2018-03-03T12:45:33.049Z,21888.00
2018-03-03T12:46:33.046Z,21984.00
2018-03-03T12:47:33.060Z,22016.00
2018-03-03T12:48:33.036Z,22112.00
2018-03-03T12:49:33.039Z,21952.00
2018-03-03T12:50:33.035Z,21504.00
2018-03-03T12:51:33.032Z,21120.00
2018-03-03T12:52:33.027Z,20896.00
2018-03-03T12:53:33.025Z,21024.00
2018-03-03T12:54:33.013Z,20928.00
2018-03-03T12:55:33.019Z,20928.00
2018-03-03T12:56:33.018Z,20512.00
2018-03-03T12:57:33.034Z,20288.00
2018-03-03T12:58:33.081Z,20256.00
2018-03-03T12:59:33.007Z,20096.00
2018-03-03T13:00:33.000Z,19808.00
2018-03-03T13:01:32.994Z,19392.00
2018-03-03T13:02:32.991Z,19104.00
2018-03-03T13:03:32.994Z,19072.00
2018-03-03T13:04:32.982Z,19232.00
2018-03-03T13:05:32.981Z,19328.00
2018-03-03T13:06:32.975Z,19264.00
2018-03-03T13:07:32.974Z,19232.00
2018-03-03T13:08:32.966Z,19008.00
2018-03-03T13:09:32.965Z,18880.00
2018-03-03T13:10:32.961Z,18560.00
2018-03-03T13:11:32.951Z,18336.00
2018-03-03T13:12:32.952Z,18272.00
2018-03-03T13:13:32.972Z,18464.00
2018-03-03T13:14:32.946Z,18656.00
2018-03-03T13:15:32.942Z,18784.00
2018-03-03T13:16:32.938Z,18400.00
2018-03-03T13:17:32.936Z,17568.00
2018-03-03T13:18:32.930Z,16476.00
2018-03-03T13:19:32.926Z,15828.00
2018-03-03T13:20:32.919Z,15756.00
2018-03-03T13:21:32.914Z,16260.00
2018-03-03T13:22:32.911Z,17092.00
2018-03-03T13:23:32.906Z,17696.00